createdAt,value
2019-04-05T00:00:01.417Z,15
2019-04-05T00:05:02.059Z,15
2019-04-05T00:10:01.881Z,16
2019-04-05T00:15:14.242Z,16
2019-04-05T00:20:01.873Z,16
2019-04-05T00:25:02.250Z,15
2019-04-05T00:30:01.612Z,17
2019-04-05T00:35:01.983Z,16
2019-04-05T00:40:01.855Z,17
2019-04-05T00:45:02.213Z,15
2019-04-05T00:50:01.595Z,15
2019-04-05T00:55:01.937Z,13
2019-04-05T01:00:02.237Z,15
2019-04-05T01:05:01.836Z,17
2019-04-05T01:10:01.626Z,16
2019-04-05T01:15:01.423Z,16
2019-04-05T01:20:01.866Z,15
2019-04-05T01:25:02.231Z,15
2019-04-05T01:30:01.576Z,17
2019-04-05T01:35:01.931Z,18
2019-04-05T01:40:01.775Z,16
2019-04-05T01:45:02.129Z,17
2019-04-05T01:50:01.529Z,15
2019-04-05T01:55:01.880Z,19
2019-04-05T02:00:02.277Z,17
2019-04-05T02:05:01.918Z,15
2019-04-05T02:10:01.708Z,17
2019-04-05T02:15:01.448Z,16
2019-04-05T02:20:01.908Z,16
2019-04-05T02:25:02.284Z,19
2019-04-05T02:30:01.644Z,18
2019-04-05T02:35:01.990Z,16
2019-04-05T02:40:01.856Z,19
2019-04-05T02:45:02.242Z,14
2019-04-05T02:50:01.614Z,15
2019-04-05T02:55:01.963Z,16
2019-04-05T03:00:02.415Z,21
2019-04-05T03:05:02.046Z,17
2019-04-05T03:10:01.904Z,19
2019-04-05T03:15:01.524Z,16
2019-04-05T03:20:01.969Z,14
2019-04-05T03:25:01.481Z,16
2019-04-05T03:30:01.971Z,16
2019-04-05T03:35:01.537Z,15
2019-04-05T03:40:01.320Z,19
2019-04-05T03:45:01.691Z,17
2019-04-05T03:50:02.170Z,17
2019-04-05T03:55:01.556Z,20
2019-04-05T04:00:01.945Z,18
2019-04-05T04:05:01.637Z,18
2019-04-05T04:10:01.559Z,16
2019-04-05T04:15:02.013Z,16
2019-04-05T04:20:01.446Z,16
2019-04-05T04:25:01.903Z,20
2019-04-05T04:30:02.357Z,17
2019-04-05T04:35:01.684Z,15
2019-04-05T04:40:02.052Z,15
2019-04-05T04:45:11.854Z,16
2019-04-05T04:50:02.115Z,19
2019-04-05T04:55:01.545Z,13
2019-04-05T05:00:01.996Z,14
2019-04-05T05:05:01.715Z,17
2019-04-05T05:10:03.262Z,12
2019-04-05T05:15:02.061Z,16
2019-04-05T05:20:01.520Z,14
2019-04-05T05:25:01.902Z,16
2019-04-05T05:30:02.280Z,15
2019-04-05T05:35:02.503Z,15
2019-04-05T05:40:01.457Z,13
2019-04-05T05:45:01.802Z,14
2019-04-05T05:50:02.201Z,13
2019-04-05T05:55:01.617Z,13
2019-04-05T06:00:01.926Z,13
2019-04-05T06:05:01.609Z,12
2019-04-05T06:10:01.425Z,12
2019-04-05T06:15:02.182Z,10
2019-04-05T06:20:01.626Z,11
2019-04-05T06:25:01.976Z,13
2019-04-05T06:30:01.381Z,10
2019-04-05T06:35:01.746Z,13
2019-04-05T06:40:01.788Z,10
2019-04-05T06:45:02.131Z,9
2019-04-05T06:50:01.492Z,8
2019-04-05T06:55:01.830Z,10
2019-04-05T07:00:02.202Z,8
2019-04-05T07:05:01.856Z,10
2019-04-05T07:10:01.639Z,9
2019-04-05T07:15:01.418Z,9
2019-04-05T07:20:01.875Z,9
2019-04-05T07:25:02.295Z,7
2019-04-05T07:30:01.630Z,7
2019-04-05T07:35:01.995Z,5
2019-04-05T07:40:01.823Z,5
2019-04-05T07:45:02.169Z,8
2019-04-05T07:50:01.562Z,7
2019-04-05T07:55:01.901Z,7
2019-04-05T08:00:02.259Z,6
2019-04-05T08:05:01.893Z,6
2019-04-05T08:10:03.143Z,4
2019-04-05T08:15:01.598Z,6
2019-04-05T08:20:02.052Z,6
2019-04-05T08:25:01.380Z,5
2019-04-05T08:30:01.994Z,4
2019-04-05T08:35:01.398Z,6
2019-04-05T08:40:02.178Z,4
2019-04-05T08:45:01.531Z,5
2019-04-05T08:50:01.933Z,3
2019-04-05T08:55:02.285Z,4
2019-04-05T09:00:01.570Z,5
2019-04-05T09:05:02.327Z,4
2019-04-05T09:10:02.164Z,2
2019-04-05T09:15:01.587Z,3
2019-04-05T09:20:02.045Z,4
2019-04-05T09:25:01.402Z,3
2019-04-05T09:30:01.814Z,4
2019-04-05T09:35:02.186Z,4
2019-04-05T09:40:01.993Z,3
2019-04-05T09:45:01.358Z,4
2019-04-05T09:50:01.746Z,3
2019-04-05T09:55:02.127Z,3
2019-04-05T10:00:01.453Z,3
2019-04-05T10:05:02.111Z,4
2019-04-05T10:10:01.941Z,4
2019-04-05T10:15:02.172Z,3
2019-04-05T10:20:02.213Z,2
2019-04-05T10:25:01.583Z,3
2019-04-05T10:30:01.962Z,3
2019-04-05T10:35:01.364Z,1
2019-04-05T10:40:02.163Z,3
2019-04-05T10:45:01.503Z,7
2019-04-05T10:50:03.265Z,9
2019-04-05T10:55:02.064Z,6
2019-04-05T11:00:01.367Z,5
2019-04-05T11:05:01.999Z,4
2019-04-05T11:10:01.826Z,4
2019-04-05T11:15:02.019Z,7
2019-04-05T11:20:06.953Z,6
2019-04-05T11:25:02.264Z,4
2019-04-05T11:30:01.561Z,5
2019-04-05T11:35:01.930Z,8
2019-04-05T11:40:01.734Z,7
2019-04-05T11:45:02.096Z,4
2019-04-05T11:50:01.459Z,8
2019-04-05T11:55:04.555Z,4
2019-04-05T12:00:02.161Z,6
2019-04-05T12:05:01.797Z,6
2019-04-05T12:10:01.598Z,7
2019-04-05T12:15:02.019Z,4
2019-04-05T12:20:02.702Z,4
2019-04-05T12:25:02.831Z,5
2019-04-05T12:30:01.962Z,3
2019-04-05T12:35:01.321Z,5
2019-04-05T12:40:05.042Z,4
2019-04-05T12:45:01.682Z,3
2019-04-05T12:50:02.053Z,4
2019-04-05T12:55:01.459Z,5
2019-04-05T13:00:01.775Z,4
2019-04-05T13:05:01.430Z,6
2019-04-05T13:10:02.333Z,4
2019-04-05T13:15:11.813Z,4
2019-04-05T13:20:01.838Z,6
2019-04-05T13:25:02.223Z,4
2019-04-05T13:30:01.575Z,5
2019-04-05T13:35:01.921Z,4
2019-04-05T13:40:01.715Z,5
2019-04-05T13:45:02.069Z,4
2019-04-05T13:50:01.677Z,4
2019-04-05T13:55:02.032Z,4
2019-04-05T14:00:01.366Z,2
2019-04-05T14:05:01.992Z,1
2019-04-05T14:10:01.812Z,3
2019-04-05T14:15:01.525Z,2
2019-04-05T14:20:01.992Z,3
2019-04-05T14:25:01.316Z,4
2019-04-05T14:30:03.113Z,2
2019-04-05T14:35:01.667Z,2
2019-04-05T14:40:01.459Z,3
2019-04-05T14:45:01.846Z,4
2019-04-05T14:50:02.296Z,3
2019-04-05T14:55:01.628Z,3
2019-04-05T15:00:02.009Z,5
2019-04-05T15:05:01.661Z,11
2019-04-05T15:10:03.694Z,10
2019-04-05T15:15:01.668Z,7
2019-04-05T15:20:04.688Z,7
2019-04-05T15:25:01.397Z,6
2019-04-05T15:30:01.770Z,8
2019-04-05T15:35:02.219Z,6
2019-04-05T15:40:02.072Z,7
2019-04-05T15:45:01.424Z,8
2019-04-05T15:50:01.812Z,6
2019-04-05T15:55:03.767Z,7
2019-04-05T16:00:04.676Z,7
2019-04-05T16:05:01.306Z,6
2019-04-05T16:10:02.036Z,5
2019-04-05T16:15:02.043Z,4
2019-04-05T16:20:01.494Z,5
2019-04-05T16:25:03.776Z,5
2019-04-05T16:30:01.365Z,3
2019-04-05T16:35:01.675Z,6
2019-04-05T16:40:01.490Z,3
2019-04-05T16:45:01.852Z,5
2019-04-05T16:50:02.237Z,3
2019-04-05T16:55:01.577Z,3
2019-04-05T17:00:01.899Z,3
2019-04-05T17:05:01.532Z,2
2019-04-05T17:10:01.309Z,3
2019-04-05T17:15:01.933Z,2
2019-04-05T17:20:01.378Z,3
2019-04-05T17:25:01.727Z,2
2019-04-05T17:30:02.121Z,2
2019-04-05T17:35:01.467Z,2
2019-04-05T17:40:02.311Z,2
2019-04-05T17:45:01.666Z,3
2019-04-05T17:50:02.041Z,4
2019-04-05T17:55:01.386Z,3
2019-04-05T18:00:01.691Z,2
2019-04-05T18:05:01.332Z,4
2019-04-05T18:10:02.126Z,2
2019-04-05T18:15:02.167Z,2
2019-04-05T18:20:01.615Z,2
2019-04-05T18:25:02.015Z,2
2019-04-05T18:30:01.393Z,2
2019-04-05T18:35:01.778Z,2
2019-04-05T18:40:01.637Z,2
2019-04-05T18:45:01.986Z,2
2019-04-05T18:50:03.219Z,2
2019-04-05T18:55:01.888Z,3
2019-04-05T19:00:02.257Z,1
2019-04-05T19:05:02.243Z,2
2019-04-05T19:10:02.017Z,3
2019-04-05T19:15:01.665Z,3
2019-04-05T19:20:02.135Z,1
2019-04-05T19:25:01.541Z,3
2019-04-05T19:50:01.991Z,3
2019-04-05T19:55:01.354Z,1
2019-04-05T20:00:01.664Z,2
2019-04-05T20:05:02.355Z,7
2019-04-05T20:10:02.115Z,12
2019-04-05T20:15:01.706Z,4
2019-04-05T20:20:02.227Z,2
2019-04-05T20:25:01.572Z,2
2019-04-05T20:30:01.962Z,2
2019-04-05T20:35:02.349Z,2
2019-04-05T20:40:02.144Z,1
2019-04-05T20:45:01.488Z,1
2019-04-05T20:50:01.880Z,3
2019-04-05T20:55:02.228Z,2
2019-04-05T21:00:01.577Z,2
2019-04-05T21:05:02.098Z,3
2019-04-05T21:10:01.947Z,2
2019-04-05T21:15:02.234Z,4
2019-04-05T21:20:01.686Z,2
2019-04-05T21:25:02.061Z,2
2019-04-05T21:30:01.404Z,2
2019-04-05T21:35:01.787Z,2
2019-04-05T21:40:01.604Z,2
2019-04-05T21:45:01.979Z,1
2019-04-05T21:50:01.383Z,2
2019-04-05T21:55:01.756Z,3
2019-04-05T22:00:02.168Z,2
2019-04-05T22:05:01.853Z,2
2019-04-05T22:10:01.700Z,1
2019-04-05T22:15:01.955Z,2
2019-04-05T22:20:01.492Z,3
2019-04-05T22:25:01.911Z,1
2019-04-05T22:30:01.859Z,4
2019-04-05T22:35:02.265Z,2
2019-04-05T22:40:02.095Z,3
2019-04-05T22:45:01.862Z,3
2019-04-05T22:50:02.264Z,3
2019-04-05T22:55:10.452Z,4
2019-04-05T23:00:02.282Z,3
2019-04-05T23:05:01.924Z,3
2019-04-05T23:10:01.802Z,4
2019-04-05T23:15:01.416Z,5
2019-04-05T23:20:01.856Z,3
2019-04-05T23:25:02.269Z,3
2019-04-05T23:30:01.647Z,4
2019-04-05T23:35:02.053Z,3
2019-04-05T23:40:01.929Z,5
2019-04-05T23:45:02.342Z,3
2019-04-05T23:50:01.755Z,4
2019-04-05T23:55:02.168Z,3
